Time;durP1;ratioP1;P1;durP2;ratioP2;P2;SDS_P1;SDS_P2;PMS_P1;PMS_P2;Temp;Humidity;BMP_temperature;BMP_pressure;BME280_temperature;BME280_humidity;BME280_pressure;Samples;Min_cycle;Max_cycle;Signal;HPM_P1;HPM_P2
2021/05/24 00:00:30;;;;;;;15.88;9.95;;;;;;;6.72;88.18;98553.64;1790392;80;20847;-76
2021/05/24 00:02:57;;;;;;;17.67;10.48;;;;;;;6.60;88.43;98551.02;1790146;78;20836;-77
2021/05/24 00:05:27;;;;;;;14.05;8.95;;;;;;;6.56;88.43;98553.07;1763591;80;20947;-77
2021/05/24 00:07:53;;;;;;;12.43;8.05;;;;;;;6.47;88.50;98555.33;1789694;78;20872;-77
2021/05/24 00:10:23;;;;;;;14.28;8.20;;;;;;;6.43;88.15;98557.70;1763634;80;21046;-77
2021/05/24 00:12:50;;;;;;;13.43;8.00;;;;;;;6.39;88.52;98569.16;1789412;78;20903;-77
2021/05/24 00:15:29;;;;;;;12.15;7.10;;;;;;;6.42;88.08;98573.56;1790019;80;21242;-77
2021/05/24 00:17:55;;;;;;;11.55;7.22;;;;;;;6.42;87.97;98584.86;1790215;78;20931;-77
2021/05/24 00:20:25;;;;;;;11.93;7.10;;;;;;;6.39;87.82;98583.44;1790007;80;20891;-77
2021/05/24 00:22:51;;;;;;;14.33;7.08;;;;;;;6.39;87.31;98580.75;1790159;78;20990;-77
2021/05/24 00:25:18;;;;;;;12.10;7.22;;;;;;;6.33;86.68;98579.03;1790149;80;20887;-77
2021/05/24 00:27:44;;;;;;;11.95;7.12;;;;;;;6.27;86.55;98579.16;1790187;78;20984;-77
2021/05/24 00:30:11;;;;;;;10.93;7.70;;;;;;;6.20;86.66;98576.59;1790120;80;20887;-77
2021/05/24 00:32:37;;;;;;;12.55;8.15;;;;;;;6.17;86.63;98585.97;1790008;78;20880;-77
2021/05/24 00:35:05;;;;;;;13.78;7.80;;;;;;;6.16;87.06;98599.14;1790507;80;20942;-77
2021/05/24 00:37:31;;;;;;;15.48;8.90;;;;;;;6.17;88.22;98599.95;1790085;78;21474;-77
2021/05/24 00:39:57;;;;;;;14.28;8.03;;;;;;;5.99;87.77;98596.07;1790123;80;21773;-77
2021/05/24 00:42:23;;;;;;;12.60;7.80;;;;;;;5.99;87.77;98596.07;1789988;78;20938;-77
2021/05/24 00:44:49;;;;;;;14.53;7.75;;;;;;;5.83;88.27;98596.23;1790212;80;20864;-77
2021/05/24 00:47:15;;;;;;;14.65;8.85;;;;;;;5.80;88.41;98599.36;1790096;78;20979;-77
2021/05/24 00:49:44;;;;;;;13.62;8.05;;;;;;;5.77;88.41;98597.16;1763798;80;20888;-77
2021/05/24 00:52:09;;;;;;;13.72;7.97;;;;;;;5.79;87.66;98603.11;1789833;78;21181;-77
2021/05/24 00:54:35;;;;;;;15.10;9.75;;;;;;;5.73;87.89;98599.51;1790108;80;20898;-77
2021/05/24 00:57:02;;;;;;;19.17;9.88;;;;;;;5.72;89.01;98599.72;1790023;78;20852;-77
2021/05/24 00:59:28;;;;;;;14.73;8.48;;;;;;;5.76;89.29;98600.91;1789975;80;21380;-77
2021/05/24 01:01:54;;;;;;;12.35;7.37;;;;;;;5.77;90.10;98607.38;1790095;78;20927;-77
2021/05/24 01:04:20;;;;;;;11.78;7.58;;;;;;;5.85;88.64;98609.72;1790106;80;21112;-77
2021/05/24 01:06:47;;;;;;;13.03;7.83;;;;;;;5.86;87.55;98608.66;1790426;78;20967;-77
2021/05/24 01:09:13;;;;;;;13.45;8.00;;;;;;;5.81;88.19;98607.72;1790104;80;20959;-77
2021/05/24 01:11:39;;;;;;;14.75;8.83;;;;;;;5.81;90.85;98605.87;1790183;80;20946;-76
2021/05/24 01:14:05;;;;;;;14.13;7.85;;;;;;;5.91;90.16;98600.75;1790079;78;20915;-76
2021/05/24 01:16:31;;;;;;;11.38;7.10;;;;;;;6.01;89.15;98600.16;1790107;80;21121;-76
2021/05/24 01:18:57;;;;;;;15.28;9.55;;;;;;;6.05;88.10;98607.21;1763819;80;20864;-76
2021/05/24 01:21:24;;;;;;;15.28;8.65;;;;;;;5.96;88.37;98607.28;1763802;80;20940;-76
2021/05/24 01:23:50;;;;;;;12.65;7.45;;;;;;;5.93;89.04;98609.92;1790011;78;21454;-76
2021/05/24 01:26:17;;;;;;;13.85;8.03;;;;;;;5.86;89.50;98610.53;1763754;80;20908;-76
2021/05/24 01:28:43;;;;;;;14.10;8.33;;;;;;;5.79;89.96;98616.03;1789986;78;21514;-76
2021/05/24 01:31:09;;;;;;;15.35;7.90;;;;;;;5.77;89.41;98613.29;1763637;80;20891;-77
2021/05/24 01:33:36;;;;;;;13.90;8.08;;;;;;;5.74;89.69;98610.55;1789954;78;20840;-77
2021/05/24 01:36:05;;;;;;;11.88;7.72;;;;;;;5.71;89.28;98611.00;1790088;80;20999;-77
2021/05/24 01:38:32;;;;;;;11.80;7.20;;;;;;;5.68;88.70;98618.20;1789716;78;20942;-77
2021/05/24 01:40:58;;;;;;;13.00;7.90;;;;;;;5.60;88.90;98615.33;1790233;80;20974;-77
2021/05/24 01:43:28;;;;;;;13.93;9.45;;;;;;;5.55;90.52;98612.51;1790197;78;20868;-77
2021/05/24 01:45:54;;;;;;;15.23;9.05;;;;;;;5.50;90.17;98612.41;1790059;80;20979;-77
2021/05/24 01:48:20;;;;;;;17.27;8.43;;;;;;;5.47;89.25;98619.60;1790481;78;21002;-77
2021/05/24 01:50:46;;;;;;;15.35;9.25;;;;;;;5.42;88.60;98624.84;1789992;80;21539;-77
2021/05/24 01:53:12;;;;;;;14.05;8.30;;;;;;;5.38;88.99;98627.19;1789956;78;21524;-77
2021/05/24 01:55:38;;;;;;;15.93;7.83;;;;;;;5.37;88.60;98626.86;1789912;80;20824;-77
2021/05/24 01:58:05;;;;;;;18.87;9.48;;;;;;;5.35;88.50;98625.47;1790053;78;20875;-77
2021/05/24 02:00:31;;;;;;;13.28;7.67;;;;;;;5.33;88.87;98618.16;1790001;80;20907;-77
2021/05/24 02:02:57;;;;;;;13.03;7.22;;;;;;;5.37;88.71;98622.83;1790175;78;20883;-77
2021/05/24 02:05:24;;;;;;;9.80;6.33;;;;;;;5.33;88.42;98607.42;1763627;80;21458;-77
2021/05/24 02:07:50;;;;;;;11.25;6.92;;;;;;;5.34;88.39;98629.20;1764082;80;20939;-77
2021/05/24 02:10:21;;;;;;;12.10;7.22;;;;;;;5.34;88.58;98632.71;1790031;80;21374;-77
2021/05/24 02:12:48;;;;;;;11.55;8.15;;;;;;;5.28;88.64;98631.47;1789724;78;20911;-78
2021/05/24 02:15:17;;;;;;;13.80;8.05;;;;;;;5.24;88.65;98629.78;1763623;80;20911;-77
2021/05/24 02:17:43;;;;;;;10.90;6.97;;;;;;;5.15;88.62;98631.69;1790092;78;20991;-77
2021/05/24 02:20:11;;;;;;;14.28;8.10;;;;;;;5.09;88.78;98622.14;1789928;80;21457;-77
2021/05/24 02:22:38;;;;;;;12.25;7.40;;;;;;;4.99;89.31;98612.48;1790051;78;20852;-77
2021/05/24 02:25:07;;;;;;;8.45;5.90;;;;;;;4.97;89.42;98610.55;1789989;80;20961;-77
2021/05/24 02:27:33;;;;;;;10.78;6.85;;;;;;;4.94;87.85;98617.70;1790114;78;21403;-77
2021/05/24 02:29:59;;;;;;;10.23;6.47;;;;;;;4.81;88.88;98626.78;1790062;80;21794;-77
2021/05/24 02:32:25;;;;;;;10.63;5.62;;;;;;;4.77;89.49;98631.48;1789980;78;20978;-77
2021/05/24 02:34:51;;;;;;;8.35;5.55;;;;;;;4.81;88.02;98633.50;1789952;80;20970;-77
2021/05/24 02:37:17;;;;;;;9.95;5.65;;;;;;;4.83;88.24;98637.81;1763632;80;20840;-77
2021/05/24 02:39:43;;;;;;;9.85;5.80;;;;;;;4.83;88.39;98644.53;1790154;80;20896;-77
2021/05/24 02:42:09;;;;;;;10.80;6.67;;;;;;;4.90;88.81;98646.61;1790047;78;21582;-77
2021/05/24 02:44:34;;;;;;;11.65;6.78;;;;;;;4.89;90.10;98642.28;1789955;80;21615;-77
2021/05/24 02:47:00;;;;;;;10.00;6.53;;;;;;;4.91;88.96;98641.00;1790086;78;20986;-77
2021/05/24 02:49:26;;;;;;;9.78;6.08;;;;;;;4.91;88.96;98641.00;1790419;80;21537;-77
2021/05/24 02:51:52;;;;;;;8.90;5.75;;;;;;;4.97;88.96;98656.73;1763683;78;21604;-78
2021/05/24 02:54:18;;;;;;;14.20;8.18;;;;;;;4.97;88.77;98660.24;1789986;80;21050;-77
2021/05/24 02:56:47;;;;;;;10.55;6.53;;;;;;;5.00;90.08;98653.59;1763939;80;21065;-77
2021/05/24 02:59:13;;;;;;;13.48;7.67;;;;;;;5.04;90.07;98658.78;1790123;80;21467;-77
2021/05/24 03:01:39;;;;;;;11.50;7.40;;;;;;;5.08;89.45;98654.08;1790569;80;21572;-76
2021/05/24 03:04:07;;;;;;;16.35;6.90;;;;;;;5.09;89.90;98662.96;1790028;78;21240;-76
2021/05/24 03:06:33;;;;;;;15.68;6.35;;;;;;;5.09;89.98;98661.62;1790084;80;21719;-77
2021/05/24 03:08:59;;;;;;;11.60;6.37;;;;;;;5.09;89.29;98658.41;1790012;78;20947;-77
2021/05/24 03:11:25;;;;;;;17.27;9.40;;;;;;;5.03;89.85;98659.84;1790217;80;20924;-77
2021/05/24 03:13:51;;;;;;;43.15;23.98;;;;;;;5.00;90.23;98667.83;1790025;78;21461;-77
2021/05/24 03:16:18;;;;;;;16.95;9.68;;;;;;;4.97;90.60;98666.95;1790105;80;20863;-77
2021/05/24 03:18:44;;;;;;;31.37;17.98;;;;;;;5.02;89.55;98660.36;1790176;78;21240;-77
2021/05/24 03:21:10;;;;;;;19.50;12.82;;;;;;;4.99;89.54;98661.35;1787460;80;20903;-77
2021/05/24 03:23:36;;;;;;;14.10;8.90;;;;;;;5.04;88.89;98666.34;1786702;79;21454;-77
2021/05/24 03:26:02;;;;;;;13.30;10.08;;;;;;;5.16;89.06;98668.25;1786728;80;21038;-77
2021/05/24 03:28:28;;;;;;;35.58;26.10;;;;;;;5.24;88.87;98667.39;1786796;79;20983;-77
2021/05/24 03:30:54;;;;;;;15.10;12.07;;;;;;;5.29;90.42;98667.51;1786871;80;21147;-76
2021/05/24 03:33:20;;;;;;;16.37;11.93;;;;;;;5.35;90.71;98670.62;1787109;79;20966;-76
2021/05/24 03:35:46;;;;;;;10.40;5.53;;;;;;;5.42;90.26;98671.88;1786940;80;20999;-76
2021/05/24 03:38:12;;;;;;;8.33;6.35;;;;;;;5.52;88.99;98674.00;1786722;79;20882;-77
2021/05/24 03:40:38;;;;;;;16.45;12.63;;;;;;;5.54;89.00;98670.55;1786750;80;20899;-77
2021/05/24 03:43:04;;;;;;;10.50;7.03;;;;;;;5.48;90.31;98663.42;1786820;79;21347;-77
2021/05/24 03:45:32;;;;;;;10.85;7.60;;;;;;;5.51;89.97;98677.21;1787060;80;20935;-77
2021/05/24 03:47:58;;;;;;;10.15;7.12;;;;;;;5.51;90.20;98674.52;1786792;79;20932;-77
2021/05/24 03:50:25;;;;;;;10.08;5.67;;;;;;;5.47;90.58;98669.33;1787081;80;20926;-77
2021/05/24 03:52:52;;;;;;;13.30;7.22;;;;;;;5.50;90.33;98672.07;1786942;79;20975;-77
2021/05/24 03:55:18;;;;;;;11.83;7.97;;;;;;;5.49;90.30;98671.78;1786754;80;21083;-77
2021/05/24 03:57:47;;;;;;;14.07;7.72;;;;;;;5.50;89.94;98662.66;1786731;79;21446;-77
2021/05/24 04:00:14;;;;;;;9.40;5.62;;;;;;;5.51;89.89;98664.30;1786795;80;21475;-77
2021/05/24 04:02:40;;;;;;;11.00;6.42;;;;;;;5.50;89.92;98658.63;1787115;79;20979;-77
2021/05/24 04:05:16;;;;;;;8.05;6.53;;;;;;;5.50;89.96;98653.25;1786707;80;20942;-77
2021/05/24 04:07:35;;;;;;;5.83;4.22;;;;;;;5.51;89.95;98653.55;1784880;79;21870;-77
2021/05/24 04:10:02;;;;;;;10.43;4.33;;;;;;;5.51;89.05;98642.27;1786619;80;20813;-77
2021/05/24 04:12:28;;;;;;;11.03;4.75;;;;;;;5.40;88.70;98649.80;1786750;79;21022;-77
2021/05/24 04:14:56;;;;;;;7.72;5.47;;;;;;;5.37;88.37;98655.08;1786807;80;20863;-77
2021/05/24 04:17:23;;;;;;;10.85;5.53;;;;;;;5.33;88.75;98657.95;1786810;79;20995;-77
2021/05/24 04:19:50;;;;;;;9.50;5.55;;;;;;;5.36;89.55;98659.35;1787324;78;21088;-77
2021/05/24 04:22:16;;;;;;;8.30;5.45;;;;;;;5.44;88.99;98660.36;1789968;78;20832;-77
2021/05/24 04:24:42;;;;;;;10.78;8.35;;;;;;;5.56;89.65;98667.13;1790107;80;20943;-77
2021/05/24 04:27:08;;;;;;;10.43;8.10;;;;;;;5.69;90.12;98666.07;1790014;78;20907;-77
2021/05/24 04:29:34;;;;;;;12.82;5.70;;;;;;;5.86;89.35;98671.05;1790142;80;20868;-77
2021/05/24 04:32:00;;;;;;;9.18;6.40;;;;;;;6.08;88.71;98669.99;1789984;78;21263;-77
2021/05/24 04:34:26;;;;;;;7.87;5.90;;;;;;;6.13;88.60;98669.56;1790026;80;20931;-77
2021/05/24 04:36:52;;;;;;;7.22;5.05;;;;;;;6.13;87.49;98674.13;1763726;78;20990;-77
2021/05/24 04:39:18;;;;;;;10.00;7.33;;;;;;;6.10;87.52;98676.77;1790035;80;21474;-77
2021/05/24 04:41:44;;;;;;;9.38;5.75;;;;;;;6.19;87.47;98674.54;1789985;80;20847;-77
2021/05/24 04:44:19;;;;;;;9.00;5.90;;;;;;;6.29;87.65;98676.63;1788733;80;21403;-77
2021/05/24 04:46:40;;;;;;;12.63;6.12;;;;;;;6.32;87.08;98676.15;1788815;80;21548;-77
2021/05/24 04:49:06;;;;;;;11.60;6.47;;;;;;;6.46;87.00;98675.66;1790040;80;20887;-77
2021/05/24 04:51:32;;;;;;;11.22;7.37;;;;;;;6.61;87.31;98683.78;1789935;80;21010;-77
2021/05/24 04:53:58;;;;;;;9.10;5.95;;;;;;;6.80;87.75;98683.90;1763633;80;20879;-77
2021/05/24 04:56:23;;;;;;;8.03;5.30;;;;;;;7.05;87.75;98693.83;1790049;80;20910;-77
2021/05/24 04:58:49;;;;;;;8.43;4.75;;;;;;;7.30;86.96;98692.14;1790042;78;20931;-77
2021/05/24 05:01:16;;;;;;;10.95;5.08;;;;;;;7.58;86.58;98687.77;1789986;80;20950;-77
2021/05/24 05:03:42;;;;;;;5.65;4.42;;;;;;;7.84;85.92;98686.30;1763689;80;21042;-77
2021/05/24 05:06:08;;;;;;;7.30;4.50;;;;;;;8.05;85.02;98692.84;1790149;80;20867;-77
2021/05/24 05:08:34;;;;;;;7.08;4.95;;;;;;;8.25;84.60;98684.22;1789942;78;21822;-77
2021/05/24 05:10:59;;;;;;;7.70;4.83;;;;;;;8.47;84.54;98679.72;1789941;80;20880;-77
2021/05/24 05:13:25;;;;;;;6.50;3.58;;;;;;;8.70;84.39;98675.40;1763496;80;20888;-77
2021/05/24 05:15:51;;;;;;;5.25;4.72;;;;;;;8.96;84.11;98678.41;1790582;80;20927;-77
2021/05/24 05:18:17;;;;;;;5.42;3.98;;;;;;;9.13;83.81;98676.97;1790069;78;21402;-77
2021/05/24 05:20:43;;;;;;;10.48;5.17;;;;;;;9.43;82.94;98675.13;1789844;80;21101;-77
2021/05/24 05:23:09;;;;;;;10.23;5.47;;;;;;;9.52;82.94;98678.45;1789895;78;20848;-77
2021/05/24 05:25:35;;;;;;;5.65;4.42;;;;;;;9.78;82.72;98681.38;1790133;80;21041;-77
2021/05/24 05:28:02;;;;;;;8.10;5.42;;;;;;;9.98;81.26;98674.77;1763519;80;21032;-77
2021/05/24 05:30:28;;;;;;;5.97;4.22;;;;;;;10.03;80.95;98685.64;1790103;80;20974;-77
2021/05/24 05:32:54;;;;;;;9.48;5.60;;;;;;;10.15;80.79;98693.02;1789953;78;21728;-77
2021/05/24 05:35:20;;;;;;;8.60;4.72;;;;;;;10.30;80.71;98695.59;1789926;80;21130;-77
2021/05/24 05:37:52;;;;;;;10.08;6.28;;;;;;;10.45;79.05;98688.92;1790390;78;20987;-77
2021/05/24 05:40:17;;;;;;;9.85;4.97;;;;;;;10.57;79.65;98688.70;1788639;80;21042;-76
2021/05/24 05:42:47;;;;;;;9.93;5.28;;;;;;;10.76;79.07;98668.73;1764037;80;21011;-76
2021/05/24 05:45:14;;;;;;;6.45;4.87;;;;;;;10.92;77.50;98671.23;1789941;80;21754;-76
2021/05/24 05:47:41;;;;;;;6.28;4.78;;;;;;;10.96;77.40;98677.77;1790004;78;21446;-76
2021/05/24 05:50:08;;;;;;;7.95;4.50;;;;;;;10.99;77.71;98679.94;1789917;80;21012;-76
2021/05/24 05:52:35;;;;;;;8.98;4.37;;;;;;;11.08;78.02;98677.53;1789927;78;21444;-76
2021/05/24 05:55:06;;;;;;;20.90;6.45;;;;;;;11.26;76.76;98678.93;1790055;80;21011;-76
2021/05/24 05:57:32;;;;;;;13.62;5.67;;;;;;;11.30;75.84;98677.33;1790005;78;20911;-76
2021/05/24 05:59:58;;;;;;;10.75;4.95;;;;;;;11.36;77.42;98678.94;1789955;80;20974;-76
2021/05/24 06:02:24;;;;;;;8.25;5.58;;;;;;;11.60;76.84;98681.97;1789976;78;20920;-76
2021/05/24 06:04:50;;;;;;;8.45;4.95;;;;;;;11.74;75.86;98679.55;1763671;80;20914;-76
2021/05/24 06:07:16;;;;;;;7.03;4.70;;;;;;;11.91;74.97;98680.67;1789929;78;20954;-76
2021/05/24 06:09:42;;;;;;;8.30;5.65;;;;;;;11.91;74.87;98681.48;1790152;80;21141;-76
2021/05/24 06:12:09;;;;;;;8.78;5.03;;;;;;;12.02;75.46;98684.45;1789851;78;21150;-76
2021/05/24 06:14:36;;;;;;;7.92;5.58;;;;;;;12.26;75.04;98683.34;1789878;80;21510;-76
2021/05/24 06:17:04;;;;;;;6.70;4.87;;;;;;;12.52;75.31;98671.87;1790045;78;20879;-76
2021/05/24 06:19:30;;;;;;;6.87;5.10;;;;;;;12.75;74.80;98660.92;1789897;80;20919;-76
2021/05/24 06:21:56;;;;;;;8.15;4.58;;;;;;;12.95;73.78;98662.73;1787413;79;21231;-76
2021/05/24 06:24:22;;;;;;;16.12;6.95;;;;;;;13.02;72.21;98667.87;1786616;80;20915;-76
2021/05/24 06:26:48;;;;;;;9.83;5.10;;;;;;;12.94;73.53;98667.91;1786639;79;21422;-76
2021/05/24 06:29:21;;;;;;;7.80;5.08;;;;;;;13.03;73.08;98677.11;1786575;80;20959;-76
2021/05/24 06:31:44;;;;;;;8.35;5.20;;;;;;;13.17;71.79;98686.85;1785293;80;20903;-77
2021/05/24 06:34:10;;;;;;;9.18;5.45;;;;;;;13.20;71.51;98683.59;1786487;79;21459;-77
2021/05/24 06:36:36;;;;;;;9.60;5.25;;;;;;;13.23;72.72;98673.49;1786640;80;21385;-77
2021/05/24 06:39:02;;;;;;;6.80;4.28;;;;;;;13.38;73.40;98675.31;1786555;79;21501;-77
2021/05/24 06:41:28;;;;;;;6.65;4.45;;;;;;;13.46;72.66;98670.64;1786665;80;20875;-77
2021/05/24 06:43:54;;;;;;;7.87;5.05;;;;;;;13.57;72.34;98670.83;1786880;79;20982;-77
2021/05/24 06:46:20;;;;;;;7.03;4.65;;;;;;;13.80;71.65;98672.83;1786849;80;21685;-77
2021/05/24 06:48:46;;;;;;;8.03;5.10;;;;;;;13.91;70.27;98672.75;1786660;79;20868;-77
2021/05/24 06:51:12;;;;;;;10.98;6.03;;;;;;;13.80;71.16;98656.48;1756098;80;20931;-77
2021/05/24 06:53:38;;;;;;;7.15;4.72;;;;;;;13.92;71.52;98647.13;1786913;79;20864;-77
2021/05/24 06:56:04;;;;;;;13.68;6.40;;;;;;;14.17;70.83;98646.08;1756530;80;20863;-77
2021/05/24 06:58:30;;;;;;;8.28;3.60;;;;;;;14.25;70.15;98648.98;1756592;80;21835;-76
2021/05/24 07:00:56;;;;;;;11.08;4.28;;;;;;;14.25;70.13;98646.27;1786799;80;20860;-77
2021/05/24 07:03:22;;;;;;;6.95;5.30;;;;;;;14.28;70.94;98644.34;1756141;80;20887;-77
2021/05/24 07:05:48;;;;;;;10.53;4.12;;;;;;;14.65;70.48;98650.49;1786939;80;20891;-77
2021/05/24 07:08:14;;;;;;;5.40;3.45;;;;;;;15.13;68.63;98647.71;1786875;79;20876;-77
2021/05/24 07:10:40;;;;;;;6.83;3.70;;;;;;;15.36;65.18;98647.92;1786808;80;21073;-77
2021/05/24 07:13:06;;;;;;;10.98;3.80;;;;;;;15.00;66.74;98651.70;1786668;79;20959;-77
2021/05/24 07:15:32;;;;;;;12.88;4.25;;;;;;;14.91;67.96;98646.90;1786925;80;20912;-77
2021/05/24 07:17:58;;;;;;;14.40;5.05;;;;;;;15.09;68.47;98648.02;1756337;80;20840;-77
2021/05/24 07:20:24;;;;;;;5.87;4.03;;;;;;;15.37;68.27;98642.72;1787243;80;20911;-77
2021/05/24 07:22:50;;;;;;;6.12;3.62;;;;;;;15.51;66.34;98644.97;1789957;78;21090;-77
2021/05/24 07:25:16;;;;;;;7.67;4.17;;;;;;;15.50;66.44;98646.08;1790608;80;21006;-76
2021/05/24 07:27:43;;;;;;;10.60;4.95;;;;;;;15.79;65.62;98636.35;1790260;78;21410;-76
2021/05/24 07:30:12;;;;;;;10.70;6.47;;;;;;;15.92;65.54;98631.49;1790057;80;20979;-76
2021/05/24 07:32:38;;;;;;;8.63;4.10;;;;;;;16.48;63.77;98630.45;1790241;78;20948;-77
2021/05/24 07:35:05;;;;;;;8.23;3.85;;;;;;;16.75;63.51;98627.48;1790128;80;21091;-77
2021/05/24 07:37:31;;;;;;;5.92;3.67;;;;;;;16.96;63.87;98624.59;1763336;80;21046;-77
2021/05/24 07:39:57;;;;;;;5.90;4.12;;;;;;;17.38;64.43;98615.16;1763718;80;21537;-77
2021/05/24 07:42:23;;;;;;;7.40;4.12;;;;;;;17.36;60.51;98616.03;1763640;80;20911;-77
2021/05/24 07:44:49;;;;;;;4.10;3.20;;;;;;;17.16;61.42;98621.95;1790266;80;20856;-77
2021/05/24 07:47:15;;;;;;;7.62;3.22;;;;;;;16.65;58.95;98618.34;1790493;78;21023;-77
2021/05/24 07:49:41;;;;;;;5.35;3.40;;;;;;;17.23;60.53;98615.50;1790010;80;20832;-77
2021/05/24 07:52:07;;;;;;;9.35;3.42;;;;;;;17.38;60.63;98614.34;1790122;78;21102;-77
2021/05/24 07:54:33;;;;;;;5.08;3.30;;;;;;;17.11;58.83;98611.13;1790242;80;20994;-77
2021/05/24 07:56:59;;;;;;;7.08;3.33;;;;;;;17.30;60.93;98605.50;1790137;78;20930;-77
2021/05/24 07:59:25;;;;;;;5.78;3.33;;;;;;;17.65;60.99;98610.69;1790112;80;21140;-77
2021/05/24 08:01:51;;;;;;;8.50;2.87;;;;;;;17.68;59.69;98603.20;1789992;78;21002;-77
2021/05/24 08:04:17;;;;;;;7.62;3.12;;;;;;;17.67;59.48;98600.21;1790628;80;21058;-77
2021/05/24 08:06:43;;;;;;;7.87;3.20;;;;;;;17.94;58.98;98594.61;1790187;80;21002;-78
2021/05/24 08:09:09;;;;;;;4.58;2.92;;;;;;;18.13;59.13;98601.27;1790200;78;21450;-77
2021/05/24 08:11:36;;;;;;;8.85;2.40;;;;;;;18.33;57.45;98602.64;1790151;80;21064;-77
2021/05/24 08:14:02;;;;;;;6.80;2.60;;;;;;;18.26;57.30;98600.34;1789938;78;21001;-77
2021/05/24 08:16:28;;;;;;;6.58;2.62;;;;;;;18.35;57.23;98611.92;1790176;80;20987;-77
2021/05/24 08:18:54;;;;;;;3.62;2.55;;;;;;;18.84;56.32;98604.78;1790118;78;21384;-77
2021/05/24 08:21:20;;;;;;;8.40;2.12;;;;;;;19.01;55.94;98602.62;1761075;80;21465;-77
2021/05/24 08:23:46;;;;;;;6.03;2.27;;;;;;;19.24;53.23;98597.81;1779568;79;21286;-77
2021/05/24 08:26:12;;;;;;;4.92;1.87;;;;;;;19.20;54.18;98593.27;1779575;80;21019;-77
2021/05/24 08:28:38;;;;;;;3.33;1.90;;;;;;;20.00;54.49;98592.59;1779466;79;20960;-77
2021/05/24 08:31:04;;;;;;;2.95;1.90;;;;;;;20.21;52.72;98598.75;1779671;80;20899;-77
2021/05/24 08:33:31;;;;;;;5.72;1.80;;;;;;;20.67;50.76;98589.66;1779589;79;21431;-78
2021/05/24 08:35:57;;;;;;;3.83;1.37;;;;;;;20.25;46.16;98588.69;1779548;80;21208;-77
2021/05/24 08:38:23;;;;;;;3.58;0.95;;;;;;;20.72;43.36;98580.42;1779501;79;21011;-77
2021/05/24 08:40:49;;;;;;;3.35;1.27;;;;;;;21.14;42.84;98577.16;1753498;80;21055;-77
2021/05/24 08:43:15;;;;;;;2.47;1.20;;;;;;;21.76;44.55;98558.38;1753353;80;20976;-77
2021/05/24 08:45:42;;;;;;;2.52;0.98;;;;;;;21.42;43.94;98560.09;1779599;80;21039;-77
2021/05/24 08:48:09;;;;;;;2.98;1.40;;;;;;;21.66;43.54;98566.52;1779577;79;21006;-76
2021/05/24 08:50:35;;;;;;;2.47;1.40;;;;;;;21.92;43.49;98566.81;1779607;80;21016;-76
2021/05/24 08:53:01;;;;;;;3.67;1.40;;;;;;;21.74;41.59;98550.22;1779595;79;20907;-76
2021/05/24 08:55:27;;;;;;;2.58;1.20;;;;;;;21.33;42.43;98541.67;1779650;80;21043;-76
2021/05/24 08:57:53;;;;;;;1.47;0.95;;;;;;;21.52;42.24;98541.75;1779588;79;20915;-76
2021/05/24 09:00:20;;;;;;;5.45;1.32;;;;;;;21.51;40.88;98531.30;1753495;80;21591;-76
2021/05/24 09:02:49;;;;;;;4.15;1.00;;;;;;;21.37;40.89;98534.36;1779433;79;21466;-76
2021/05/24 09:05:15;;;;;;;2.80;0.90;;;;;;;21.13;42.14;98526.75;1779676;80;21423;-77
2021/05/24 09:07:58;;;;;;;2.17;0.98;;;;;;;21.58;40.04;98523.28;1753549;80;21015;-77
2021/05/24 09:10:28;;;;;;;1.87;0.95;;;;;;;21.79;40.90;98532.89;1779489;80;20896;-76
2021/05/24 09:12:55;;;;;;;1.02;0.65;;;;;;;22.23;38.98;98526.33;1779391;79;21107;-77
2021/05/24 09:15:24;;;;;;;1.02;0.80;;;;;;;21.93;38.80;98521.53;1779391;80;20912;-77
2021/05/24 09:17:52;;;;;;;;;;;;;;;22.65;37.23;98519.19;1756588;80;21447;-77
2021/05/24 09:20:24;;;;;;;1.65;0.80;;;;;;;22.59;36.79;98523.33;1779912;80;20208;-77
2021/05/24 09:23:24;;;;;;;7.62;1.42;;;;;;;22.17;37.37;98529.87;1787267;78;21427;-77
2021/05/24 09:26:10;;;;;;;3.22;1.02;;;;;;;22.41;36.99;98515.28;1785879;80;21762;-77
2021/05/24 09:28:48;;;;;;;2.40;1.00;;;;;;;21.90;38.18;98513.38;1763872;80;20979;-78
2021/05/24 09:31:31;;;;;;;3.02;1.00;;;;;;;21.76;37.66;98519.77;1790137;80;21431;-78
2021/05/24 09:34:00;;;;;;;2.42;1.25;;;;;;;21.17;37.64;98510.91;1789360;78;21341;-76
2021/05/24 09:36:27;;;;;;;1.45;0.90;;;;;;;20.41;37.67;98509.95;1790052;80;20955;-76
2021/05/24 09:39:03;;;;;;;2.08;1.15;;;;;;;20.47;40.04;98510.03;1789981;78;21551;-77
2021/05/24 09:41:31;;;;;;;3.30;1.10;;;;;;;20.75;38.97;98507.58;1742120;80;21022;-77
2021/05/24 09:43:57;;;;;;;2.80;1.22;;;;;;;21.12;39.34;98508.61;1790195;78;20951;-77
2021/05/24 09:46:28;;;;;;;2.65;0.90;;;;;;;20.64;38.08;98502.23;1790085;80;20907;-78
2021/05/24 09:48:57;;;;;;;5.10;2.27;;;;;;;20.63;39.30;98503.39;1763927;80;21351;-77
2021/05/24 09:51:25;;;;;;;5.17;1.45;;;;;;;20.43;40.42;98500.01;1790093;80;21423;-77
2021/05/24 09:54:09;;;;;;;2.90;1.93;;;;;;;19.83;38.19;98503.27;1790214;78;20880;-77
2021/05/24 09:56:39;;;;;;;4.65;1.30;;;;;;;19.69;38.74;98495.78;1789954;80;20976;-77
2021/05/24 09:59:09;;;;;;;2.27;1.10;;;;;;;20.06;39.30;98489.25;1789497;78;20935;-77
2021/05/24 10:01:44;;;;;;;2.15;1.00;;;;;;;20.97;38.67;98484.42;1790036;80;21699;-77
2021/05/24 10:04:17;;;;;;;5.28;1.25;;;;;;;21.67;37.92;98487.34;1789964;78;21867;-76
2021/05/24 10:06:43;;;;;;;2.95;1.35;;;;;;;21.95;38.68;98486.13;1789715;80;21153;-78
2021/05/24 10:09:11;;;;;;;5.17;1.45;;;;;;;22.00;34.95;98483.16;1763459;80;20955;-78
2021/05/24 10:11:39;;;;;;;2.58;1.05;;;;;;;22.04;37.18;98486.02;1790042;80;20895;-78
2021/05/24 10:14:06;;;;;;;2.75;1.40;;;;;;;21.51;35.20;98491.89;1790059;78;21376;-78
2021/05/24 10:16:35;;;;;;;1.42;0.90;;;;;;;22.02;36.54;98489.70;1789890;80;21232;-78
2021/05/24 10:19:00;;;;;;;2.17;0.90;;;;;;;22.42;34.59;98480.20;1789939;78;21013;-78
2021/05/24 10:21:26;;;;;;;4.12;1.05;;;;;;;22.53;33.58;98471.08;1763332;80;21264;-78
2021/05/24 10:23:54;;;;;;;2.08;0.78;;;;;;;23.40;35.03;98471.06;1786687;79;20998;-78
2021/05/24 10:26:20;;;;;;;3.15;0.90;;;;;;;24.49;33.64;98474.27;1786693;80;20958;-78
2021/05/24 10:28:47;;;;;;;2.40;1.60;;;;;;;23.91;33.35;98470.66;1786538;79;21086;-78
2021/05/24 10:31:19;;;;;;;2.83;1.00;;;;;;;23.16;33.79;98472.00;1787068;80;21467;-78
2021/05/24 10:33:46;;;;;;;5.72;1.40;;;;;;;22.70;33.39;98467.25;1786627;79;20852;-77
2021/05/24 10:36:29;;;;;;;19.23;10.58;;;;;;;23.08;33.43;98467.42;1786742;80;21443;-77
2021/05/24 10:39:17;;;;;;;7.75;2.25;;;;;;;23.87;32.41;98469.78;1786643;79;20940;-78
2021/05/24 10:42:00;;;;;;;1.30;0.80;;;;;;;24.11;32.85;98466.04;1786725;80;21095;-77
2021/05/24 10:44:37;;;;;;;1.27;0.72;;;;;;;24.31;31.96;98467.48;1786526;80;21407;-76
2021/05/24 10:47:24;;;;;;;1.40;1.00;;;;;;;22.80;30.82;98463.20;1786702;79;20971;-77
2021/05/24 10:50:08;;;;;;;4.05;1.60;;;;;;;23.56;32.18;98457.27;1786585;80;20958;-77
2021/05/24 10:52:38;;;;;;;3.42;1.50;;;;;;;23.20;32.66;98456.88;1786689;79;20916;-78
2021/05/24 10:55:30;;;;;;;3.95;1.25;;;;;;;22.33;31.45;98451.33;1786682;80;21044;-76
2021/05/24 10:58:13;;;;;;;4.53;1.20;;;;;;;23.25;32.92;98450.53;1755696;80;20942;-77
2021/05/24 11:01:01;;;;;;;5.15;1.55;;;;;;;23.83;31.81;98443.17;1786620;80;21039;-77
2021/05/24 11:03:28;;;;;;;2.15;1.25;;;;;;;23.39;30.99;98439.04;1786736;79;21102;-77
2021/05/24 11:06:15;;;;;;;1.95;1.10;;;;;;;24.67;30.77;98431.73;1786769;80;21454;-77
2021/05/24 11:08:52;;;;;;;1.72;1.40;;;;;;;24.76;30.96;98430.94;1786839;79;21458;-78
2021/05/24 11:11:26;;;;;;;1.47;0.88;;;;;;;24.96;29.36;98417.91;1786332;80;20904;-76
2021/05/24 11:14:00;;;;;;;2.65;0.98;;;;;;;23.36;29.73;98420.41;1786634;79;21430;-78
2021/05/24 11:16:26;;;;;;;2.90;0.80;;;;;;;23.68;30.87;98419.09;1786577;80;21443;-77
2021/05/24 11:19:10;;;;;;;1.75;1.00;;;;;;;23.71;31.11;98421.94;1786571;79;21017;-77
2021/05/24 11:21:39;;;;;;;3.27;0.88;;;;;;;24.19;30.34;98417.19;1786555;80;21454;-77
2021/05/24 11:25:48;;;;;;;5.20;1.20;;;;;;;25.00;30.41;98407.68;1778388;79;20923;-77
2021/05/24 11:26:41;;;;;;;1.67;1.05;;;;;;;25.49;30.01;98407.86;1758658;80;20931;-78
2021/05/24 11:29:19;;;;;;;4.72;1.47;;;;;;;26.58;28.84;98400.31;1779567;79;21408;-78
2021/05/24 11:31:48;;;;;;;2.37;1.22;;;;;;;28.06;27.49;98400.92;1779662;80;21011;-77
2021/05/24 11:34:31;;;;;;;3.42;1.20;;;;;;;28.43;26.00;98397.20;1779494;80;21769;-77
2021/05/24 11:37:04;;;;;;;3.37;1.20;;;;;;;29.15;25.13;98390.00;1753613;79;20980;-78